sensor_id;sensor_type;location;lat;lon;timestamp;P1;durP1;ratioP1;P2;durP2;ratioP2
71116;SDS011;58775;46.992;9.518;2023-06-01T01:27:10;6.63;;;2.60;;
71116;SDS011;58775;46.992;9.518;2023-06-01T01:29:45;6.68;;;2.58;;
71116;SDS011;58775;46.992;9.518;2023-06-01T04:54:00;9.57;;;3.97;;
71116;SDS011;58775;46.992;9.518;2023-06-01T05:18:42;6.55;;;3.00;;
71116;SDS011;58775;46.992;9.518;2023-06-01T05:24:37;7.88;;;3.10;;
71116;SDS011;58775;46.992;9.518;2023-06-01T05:26:39;7.15;;;3.25;;
71116;SDS011;58775;46.992;9.518;2023-06-01T05:28:41;6.93;;;3.17;;
71116;SDS011;58775;46.992;9.518;2023-06-01T05:30:45;9.02;;;3.47;;
71116;SDS011;58775;46.992;9.518;2023-06-01T05:39:11;8.05;;;3.90;;
71116;SDS011;58775;46.992;9.518;2023-06-01T05:41:13;9.90;;;4.00;;
71116;SDS011;58775;46.992;9.518;2023-06-01T05:46:42;8.00;;;3.53;;
71116;SDS011;58775;46.992;9.518;2023-06-01T05:48:44;9.63;;;3.88;;
71116;SDS011;58775;46.992;9.518;2023-06-01T05:50:48;8.70;;;3.53;;
71116;SDS011;58775;46.992;9.518;2023-06-01T06:56:39;8.95;;;4.00;;
71116;SDS011;58775;46.992;9.518;2023-06-01T06:58:51;7.47;;;3.87;;
71116;SDS011;58775;46.992;9.518;2023-06-01T07:00:56;9.23;;;4.00;;
71116;SDS011;58775;46.992;9.518;2023-06-01T07:03:02;8.23;;;3.55;;
71116;SDS011;58775;46.992;9.518;2023-06-01T07:09:45;8.32;;;3.70;;
71116;SDS011;58775;46.992;9.518;2023-06-01T07:25:09;7.18;;;3.97;;
71116;SDS011;58775;46.992;9.518;2023-06-01T07:28:27;6.60;;;3.63;;
71116;SDS011;58775;46.992;9.518;2023-06-01T07:31:09;9.90;;;4.18;;
71116;SDS011;58775;46.992;9.518;2023-06-01T07:33:19;8.60;;;3.78;;
71116;SDS011;58775;46.992;9.518;2023-06-01T07:35:27;7.10;;;3.92;;
71116;SDS011;58775;46.992;9.518;2023-06-01T08:16:02;5.70;;;3.92;;
71116;SDS011;58775;46.992;9.518;2023-06-01T08:18:06;6.53;;;3.75;;
71116;SDS011;58775;46.992;9.518;2023-06-01T11:02:17;8.75;;;6.13;;
71116;SDS011;58775;46.992;9.518;2023-06-01T11:14:12;6.60;;;4.53;;
71116;SDS011;58775;46.992;9.518;2023-06-01T11:18:43;9.73;;;4.93;;
71116;SDS011;58775;46.992;9.518;2023-06-01T11:20:50;8.30;;;4.72;;
71116;SDS011;58775;46.992;9.518;2023-06-01T11:22:54;7.82;;;4.47;;
71116;SDS011;58775;46.992;9.518;2023-06-01T11:25:05;8.90;;;5.15;;
71116;SDS011;58775;46.992;9.518;2023-06-01T11:27:11;8.95;;;5.60;;
71116;SDS011;58775;46.992;9.518;2023-06-01T11:29:18;9.67;;;4.70;;
71116;SDS011;58775;46.992;9.518;2023-06-01T11:31:23;9.00;;;4.65;;
71116;SDS011;58775;46.992;9.518;2023-06-01T11:33:28;9.05;;;4.68;;
71116;SDS011;58775;46.992;9.518;2023-06-01T11:35:31;8.90;;;4.95;;
71116;SDS011;58775;46.992;9.518;2023-06-01T11:37:37;7.68;;;4.72;;
71116;SDS011;58775;46.992;9.518;2023-06-01T11:39:44;8.23;;;5.30;;
71116;SDS011;58775;46.992;9.518;2023-06-01T11:41:49;9.30;;;4.60;;
71116;SDS011;58775;46.992;9.518;2023-06-01T11:44:10;7.22;;;4.75;;
71116;SDS011;58775;46.992;9.518;2023-06-01T11:46:21;8.20;;;4.72;;
71116;SDS011;58775;46.992;9.518;2023-06-01T11:48:26;10.10;;;5.10;;
71116;SDS011;58775;46.992;9.518;2023-06-01T11:50:34;8.77;;;4.93;;
71116;SDS011;58775;46.992;9.518;2023-06-01T11:52:38;8.77;;;5.13;;
71116;SDS011;58775;46.992;9.518;2023-06-01T11:54:42;11.60;;;5.88;;
71116;SDS011;58775;46.992;9.518;2023-06-01T11:56:45;9.35;;;4.75;;
71116;SDS011;58775;46.992;9.518;2023-06-01T11:58:56;8.15;;;4.75;;
71116;SDS011;58775;46.992;9.518;2023-06-01T12:01:03;11.63;;;5.20;;
71116;SDS011;58775;46.992;9.518;2023-06-01T12:03:08;9.80;;;5.65;;
71116;SDS011;58775;46.992;9.518;2023-06-01T12:05:18;8.70;;;5.50;;
71116;SDS011;58775;46.992;9.518;2023-06-01T12:07:26;8.75;;;5.28;;
71116;SDS011;58775;46.992;9.518;2023-06-01T12:09:35;10.00;;;5.78;;
71116;SDS011;58775;46.992;9.518;2023-06-01T12:11:40;10.40;;;5.83;;
71116;SDS011;58775;46.992;9.518;2023-06-01T12:13:47;8.35;;;5.28;;
71116;SDS011;58775;46.992;9.518;2023-06-01T12:15:55;10.52;;;5.65;;
71116;SDS011;58775;46.992;9.518;2023-06-01T12:18:03;9.80;;;5.95;;
71116;SDS011;58775;46.992;9.518;2023-06-01T12:23:29;8.53;;;5.13;;
71116;SDS011;58775;46.992;9.518;2023-06-01T12:25:52;9.98;;;5.50;;
71116;SDS011;58775;46.992;9.518;2023-06-01T12:28:06;8.48;;;4.85;;
71116;SDS011;58775;46.992;9.518;2023-06-01T12:30:19;13.05;;;5.55;;
71116;SDS011;58775;46.992;9.518;2023-06-01T12:35:51;11.03;;;5.50;;
71116;SDS011;58775;46.992;9.518;2023-06-01T12:38:02;9.27;;;5.20;;
71116;SDS011;58775;46.992;9.518;2023-06-01T12:40:34;12.02;;;5.75;;
71116;SDS011;58775;46.992;9.518;2023-06-01T12:42:37;10.85;;;6.35;;
71116;SDS011;58775;46.992;9.518;2023-06-01T12:45:09;16.02;;;6.28;;
71116;SDS011;58775;46.992;9.518;2023-06-01T12:47:20;9.17;;;5.10;;
71116;SDS011;58775;46.992;9.518;2023-06-01T12:49:26;9.70;;;5.50;;
71116;SDS011;58775;46.992;9.518;2023-06-01T12:51:32;7.90;;;5.13;;
71116;SDS011;58775;46.992;9.518;2023-06-01T12:53:53;8.75;;;5.05;;
71116;SDS011;58775;46.992;9.518;2023-06-01T12:56:06;11.75;;;6.13;;
71116;SDS011;58775;46.992;9.518;2023-06-01T12:58:11;12.60;;;6.03;;
71116;SDS011;58775;46.992;9.518;2023-06-01T13:03:52;8.98;;;5.40;;
71116;SDS011;58775;46.992;9.518;2023-06-01T13:05:58;12.13;;;5.60;;
71116;SDS011;58775;46.992;9.518;2023-06-01T13:11:53;13.30;;;6.30;;
71116;SDS011;58775;46.992;9.518;2023-06-01T13:13:56;10.93;;;5.60;;
71116;SDS011;58775;46.992;9.518;2023-06-01T13:16:01;10.10;;;5.68;;
71116;SDS011;58775;46.992;9.518;2023-06-01T13:18:13;10.30;;;6.40;;
71116;SDS011;58775;46.992;9.518;2023-06-01T13:20:18;10.27;;;5.72;;
71116;SDS011;58775;46.992;9.518;2023-06-01T13:22:21;9.23;;;5.43;;
71116;SDS011;58775;46.992;9.518;2023-06-01T13:24:23;10.18;;;5.38;;
71116;SDS011;58775;46.992;9.518;2023-06-01T13:26:39;12.73;;;5.65;;
71116;SDS011;58775;46.992;9.518;2023-06-01T13:35:17;9.23;;;5.30;;
71116;SDS011;58775;46.992;9.518;2023-06-01T13:37:20;10.77;;;5.75;;
71116;SDS011;58775;46.992;9.518;2023-06-01T13:39:47;9.30;;;5.15;;
71116;SDS011;58775;46.992;9.518;2023-06-01T13:41:58;12.65;;;5.80;;
71116;SDS011;58775;46.992;9.518;2023-06-01T13:44:38;9.98;;;5.60;;
71116;SDS011;58775;46.992;9.518;2023-06-01T13:46:43;9.73;;;5.60;;
71116;SDS011;58775;46.992;9.518;2023-06-01T13:48:45;9.48;;;5.53;;
71116;SDS011;58775;46.992;9.518;2023-06-01T13:56:46;12.65;;;5.75;;
71116;SDS011;58775;46.992;9.518;2023-06-01T14:05:33;8.95;;;5.82;;
71116;SDS011;58775;46.992;9.518;2023-06-01T14:14:27;7.77;;;4.67;;
71116;SDS011;58775;46.992;9.518;2023-06-01T14:16:32;9.20;;;4.82;;
71116;SDS011;58775;46.992;9.518;2023-06-01T14:19:01;9.90;;;4.25;;
71116;SDS011;58775;46.992;9.518;2023-06-01T14:21:27;9.70;;;4.75;;
71116;SDS011;58775;46.992;9.518;2023-06-01T14:27:07;9.87;;;4.83;;
71116;SDS011;58775;46.992;9.518;2023-06-01T14:29:18;9.32;;;5.20;;
71116;SDS011;58775;46.992;9.518;2023-06-01T14:31:26;8.60;;;4.95;;
71116;SDS011;58775;46.992;9.518;2023-06-01T14:33:29;9.05;;;5.22;;
71116;SDS011;58775;46.992;9.518;2023-06-01T14:35:35;9.20;;;5.20;;
71116;SDS011;58775;46.992;9.518;2023-06-01T14:37:39;8.57;;;4.60;;
71116;SDS011;58775;46.992;9.518;2023-06-01T14:39:42;7.10;;;4.72;;
71116;SDS011;58775;46.992;9.518;2023-06-01T14:41:46;10.80;;;5.07;;
71116;SDS011;58775;46.992;9.518;2023-06-01T14:43:48;14.70;;;4.97;;
71116;SDS011;58775;46.992;9.518;2023-06-01T14:45:50;7.70;;;4.53;;
71116;SDS011;58775;46.992;9.518;2023-06-01T14:47:53;7.00;;;4.67;;
71116;SDS011;58775;46.992;9.518;2023-06-01T14:49:55;7.90;;;4.93;;
71116;SDS011;58775;46.992;9.518;2023-06-01T14:51:57;9.75;;;4.80;;
71116;SDS011;58775;46.992;9.518;2023-06-01T14:54:05;6.35;;;4.20;;
71116;SDS011;58775;46.992;9.518;2023-06-01T14:56:07;6.82;;;4.43;;
71116;SDS011;58775;46.992;9.518;2023-06-01T14:58:10;8.13;;;4.67;;
71116;SDS011;58775;46.992;9.518;2023-06-01T15:00:12;8.10;;;4.25;;
71116;SDS011;58775;46.992;9.518;2023-06-01T15:02:25;9.23;;;5.18;;
71116;SDS011;58775;46.992;9.518;2023-06-01T15:04:37;6.82;;;4.32;;
71116;SDS011;58775;46.992;9.518;2023-06-01T15:08:19;8.38;;;4.78;;
71116;SDS011;58775;46.992;9.518;2023-06-01T15:10:43;11.10;;;5.00;;
71116;SDS011;58775;46.992;9.518;2023-06-01T15:16:24;7.65;;;4.15;;
71116;SDS011;58775;46.992;9.518;2023-06-01T15:22:20;7.53;;;4.25;;
71116;SDS011;58775;46.992;9.518;2023-06-01T15:24:47;7.60;;;5.10;;
71116;SDS011;58775;46.992;9.518;2023-06-01T15:26:51;7.97;;;4.28;;
71116;SDS011;58775;46.992;9.518;2023-06-01T15:28:59;8.30;;;4.35;;
71116;SDS011;58775;46.992;9.518;2023-06-01T15:31:10;9.73;;;4.60;;
71116;SDS011;58775;46.992;9.518;2023-06-01T15:53:44;8.23;;;4.17;;
71116;SDS011;58775;46.992;9.518;2023-06-01T15:59:22;9.18;;;4.50;;
71116;SDS011;58775;46.992;9.518;2023-06-01T16:01:24;7.07;;;4.10;;
71116;SDS011;58775;46.992;9.518;2023-06-01T16:03:27;8.32;;;4.25;;
71116;SDS011;58775;46.992;9.518;2023-06-01T16:08:53;6.68;;;4.20;;
71116;SDS011;58775;46.992;9.518;2023-06-01T16:11:01;10.57;;;4.68;;
71116;SDS011;58775;46.992;9.518;2023-06-01T16:13:11;8.35;;;4.32;;
71116;SDS011;58775;46.992;9.518;2023-06-01T16:15:14;8.55;;;4.20;;
71116;SDS011;58775;46.992;9.518;2023-06-01T16:17:16;10.40;;;4.67;;
71116;SDS011;58775;46.992;9.518;2023-06-01T16:19:18;7.57;;;4.10;;
71116;SDS011;58775;46.992;9.518;2023-06-01T16:21:20;8.88;;;4.30;;
71116;SDS011;58775;46.992;9.518;2023-06-01T16:23:23;8.75;;;4.28;;
71116;SDS011;58775;46.992;9.518;2023-06-01T16:25:28;7.57;;;4.00;;
71116;SDS011;58775;46.992;9.518;2023-06-01T16:27:34;8.97;;;3.70;;
71116;SDS011;58775;46.992;9.518;2023-06-01T16:29:46;10.52;;;4.20;;
71116;SDS011;58775;46.992;9.518;2023-06-01T16:31:48;8.30;;;4.47;;
71116;SDS011;58775;46.992;9.518;2023-06-01T16:33:50;8.10;;;4.15;;
71116;SDS011;58775;46.992;9.518;2023-06-01T16:35:54;9.10;;;4.18;;
71116;SDS011;58775;46.992;9.518;2023-06-01T16:37:56;7.77;;;3.90;;
71116;SDS011;58775;46.992;9.518;2023-06-01T16:39:58;8.75;;;4.40;;
71116;SDS011;58775;46.992;9.518;2023-06-01T16:42:01;7.18;;;4.07;;
71116;SDS011;58775;46.992;9.518;2023-06-01T16:44:06;6.95;;;4.00;;
71116;SDS011;58775;46.992;9.518;2023-06-01T16:52:53;11.32;;;4.22;;
71116;SDS011;58775;46.992;9.518;2023-06-01T16:54:55;8.32;;;3.92;;
71116;SDS011;58775;46.992;9.518;2023-06-01T16:56:57;9.93;;;4.00;;
71116;SDS011;58775;46.992;9.518;2023-06-01T16:59:01;7.25;;;3.90;;
71116;SDS011;58775;46.992;9.518;2023-06-01T17:01:02;8.90;;;3.90;;
71116;SDS011;58775;46.992;9.518;2023-06-01T17:09:19;8.73;;;3.83;;
71116;SDS011;58775;46.992;9.518;2023-06-01T17:11:21;10.75;;;3.70;;
71116;SDS011;58775;46.992;9.518;2023-06-01T17:23:33;8.02;;;4.07;;
71116;SDS011;58775;46.992;9.518;2023-06-01T17:25:35;10.07;;;3.85;;
71116;SDS011;58775;46.992;9.518;2023-06-01T17:27:40;6.43;;;3.13;;
71116;SDS011;58775;46.992;9.518;2023-06-01T17:33:07;6.95;;;3.20;;
71116;SDS011;58775;46.992;9.518;2023-06-01T17:35:11;8.68;;;3.05;;
71116;SDS011;58775;46.992;9.518;2023-06-01T17:37:13;9.30;;;3.70;;
71116;SDS011;58775;46.992;9.518;2023-06-01T17:39:16;7.73;;;3.27;;
71116;SDS011;58775;46.992;9.518;2023-06-01T17:41:22;7.93;;;3.50;;
71116;SDS011;58775;46.992;9.518;2023-06-01T17:43:24;6.00;;;2.95;;
71116;SDS011;58775;46.992;9.518;2023-06-01T17:45:26;7.57;;;3.45;;
71116;SDS011;58775;46.992;9.518;2023-06-01T17:47:27;7.40;;;3.38;;
71116;SDS011;58775;46.992;9.518;2023-06-01T17:49:29;12.53;;;3.93;;
71116;SDS011;58775;46.992;9.518;2023-06-01T17:51:30;7.68;;;3.20;;
71116;SDS011;58775;46.992;9.518;2023-06-01T17:53:32;6.05;;;3.20;;
71116;SDS011;58775;46.992;9.518;2023-06-01T17:55:35;6.75;;;3.05;;
71116;SDS011;58775;46.992;9.518;2023-06-01T17:57:48;8.02;;;3.38;;
71116;SDS011;58775;46.992;9.518;2023-06-01T17:59:57;5.87;;;3.23;;
71116;SDS011;58775;46.992;9.518;2023-06-01T18:01:59;10.35;;;3.83;;
71116;SDS011;58775;46.992;9.518;2023-06-01T18:04:03;6.82;;;3.15;;
71116;SDS011;58775;46.992;9.518;2023-06-01T18:06:10;9.20;;;3.38;;
71116;SDS011;58775;46.992;9.518;2023-06-01T18:08:17;9.90;;;3.78;;
71116;SDS011;58775;46.992;9.518;2023-06-01T18:10:18;7.03;;;3.60;;
71116;SDS011;58775;46.992;9.518;2023-06-01T18:12:21;8.57;;;3.40;;
71116;SDS011;58775;46.992;9.518;2023-06-01T18:14:24;8.25;;;3.30;;
71116;SDS011;58775;46.992;9.518;2023-06-01T18:16:28;9.45;;;3.42;;
71116;SDS011;58775;46.992;9.518;2023-06-01T18:18:31;8.77;;;3.55;;
71116;SDS011;58775;46.992;9.518;2023-06-01T18:20:33;7.97;;;3.03;;
71116;SDS011;58775;46.992;9.518;2023-06-01T18:22:35;5.82;;;3.05;;
71116;SDS011;58775;46.992;9.518;2023-06-01T18:24:37;5.95;;;2.50;;
71116;SDS011;58775;46.992;9.518;2023-06-01T18:26:44;6.78;;;3.03;;
71116;SDS011;58775;46.992;9.518;2023-06-01T18:28:46;6.43;;;2.78;;
71116;SDS011;58775;46.992;9.518;2023-06-01T18:30:50;6.43;;;2.87;;
71116;SDS011;58775;46.992;9.518;2023-06-01T18:32:53;6.13;;;2.78;;
71116;SDS011;58775;46.992;9.518;2023-06-01T18:34:57;5.32;;;2.78;;
71116;SDS011;58775;46.992;9.518;2023-06-01T18:36:59;8.30;;;2.72;;
71116;SDS011;58775;46.992;9.518;2023-06-01T18:39:02;5.95;;;2.70;;
71116;SDS011;58775;46.992;9.518;2023-06-01T18:41:05;5.40;;;2.80;;
71116;SDS011;58775;46.992;9.518;2023-06-01T18:43:10;9.57;;;3.03;;
71116;SDS011;58775;46.992;9.518;2023-06-01T18:45:14;7.50;;;2.70;;
71116;SDS011;58775;46.992;9.518;2023-06-01T18:47:19;6.78;;;2.70;;
71116;SDS011;58775;46.992;9.518;2023-06-01T18:49:24;9.80;;;2.83;;
71116;SDS011;58775;46.992;9.518;2023-06-01T18:51:27;8.37;;;2.60;;
71116;SDS011;58775;46.992;9.518;2023-06-01T18:53:33;6.15;;;2.85;;
71116;SDS011;58775;46.992;9.518;2023-06-01T18:55:38;8.35;;;2.90;;
71116;SDS011;58775;46.992;9.518;2023-06-01T18:57:40;9.02;;;2.83;;
71116;SDS011;58775;46.992;9.518;2023-06-01T18:59:44;6.43;;;2.85;;
71116;SDS011;58775;46.992;9.518;2023-06-01T19:01:49;8.53;;;3.30;;
71116;SDS011;58775;46.992;9.518;2023-06-01T19:03:52;5.35;;;2.95;;
71116;SDS011;58775;46.992;9.518;2023-06-01T19:05:54;5.80;;;2.65;;
71116;SDS011;58775;46.992;9.518;2023-06-01T19:07:56;5.80;;;2.22;;
71116;SDS011;58775;46.992;9.518;2023-06-01T19:09:59;4.95;;;2.42;;
71116;SDS011;58775;46.992;9.518;2023-06-01T19:12:05;6.57;;;2.80;;
71116;SDS011;58775;46.992;9.518;2023-06-01T19:14:07;7.00;;;2.70;;
71116;SDS011;58775;46.992;9.518;2023-06-01T19:16:15;5.68;;;2.83;;
71116;SDS011;58775;46.992;9.518;2023-06-01T19:18:37;6.07;;;2.90;;
71116;SDS011;58775;46.992;9.518;2023-06-01T19:22:42;8.17;;;3.10;;
71116;SDS011;58775;46.992;9.518;2023-06-01T19:24:43;6.93;;;2.75;;
71116;SDS011;58775;46.992;9.518;2023-06-01T19:26:46;6.18;;;3.00;;
71116;SDS011;58775;46.992;9.518;2023-06-01T19:28:48;7.20;;;2.70;;
71116;SDS011;58775;46.992;9.518;2023-06-01T19:30:51;5.38;;;2.63;;
71116;SDS011;58775;46.992;9.518;2023-06-01T19:32:56;6.87;;;3.10;;
71116;SDS011;58775;46.992;9.518;2023-06-01T19:35:01;6.78;;;2.75;;
71116;SDS011;58775;46.992;9.518;2023-06-01T19:37:04;8.00;;;3.38;;
71116;SDS011;58775;46.992;9.518;2023-06-01T19:41:17;6.80;;;2.70;;
71116;SDS011;58775;46.992;9.518;2023-06-01T19:43:41;5.70;;;2.67;;
71116;SDS011;58775;46.992;9.518;2023-06-01T19:45:42;6.72;;;2.78;;
71116;SDS011;58775;46.992;9.518;2023-06-01T19:47:48;5.95;;;2.90;;
71116;SDS011;58775;46.992;9.518;2023-06-01T19:49:52;6.88;;;3.15;;
71116;SDS011;58775;46.992;9.518;2023-06-01T19:51:54;6.55;;;2.75;;
71116;SDS011;58775;46.992;9.518;2023-06-01T20:00:40;8.00;;;2.38;;
71116;SDS011;58775;46.992;9.518;2023-06-01T20:02:49;6.65;;;2.90;;
71116;SDS011;58775;46.992;9.518;2023-06-01T20:04:53;6.35;;;2.83;;
71116;SDS011;58775;46.992;9.518;2023-06-01T20:06:54;8.23;;;2.50;;
71116;SDS011;58775;46.992;9.518;2023-06-01T20:09:00;8.25;;;2.97;;
71116;SDS011;58775;46.992;9.518;2023-06-01T20:11:08;10.25;;;3.28;;
71116;SDS011;58775;46.992;9.518;2023-06-01T20:13:12;8.70;;;3.30;;
71116;SDS011;58775;46.992;9.518;2023-06-01T20:15:13;7.20;;;3.20;;
71116;SDS011;58775;46.992;9.518;2023-06-01T20:27:14;8.13;;;3.10;;
71116;SDS011;58775;46.992;9.518;2023-06-01T20:29:17;6.90;;;2.97;;
71116;SDS011;58775;46.992;9.518;2023-06-01T20:31:20;6.40;;;2.83;;
71116;SDS011;58775;46.992;9.518;2023-06-01T20:33:25;6.45;;;2.92;;
71116;SDS011;58775;46.992;9.518;2023-06-01T20:35:28;5.88;;;3.08;;
71116;SDS011;58775;46.992;9.518;2023-06-01T20:37:30;6.20;;;2.90;;
71116;SDS011;58775;46.992;9.518;2023-06-01T20:39:33;6.03;;;3.13;;
71116;SDS011;58775;46.992;9.518;2023-06-01T20:41:36;6.40;;;2.97;;
71116;SDS011;58775;46.992;9.518;2023-06-01T20:43:39;8.32;;;3.05;;
71116;SDS011;58775;46.992;9.518;2023-06-01T20:46:03;5.72;;;3.03;;
71116;SDS011;58775;46.992;9.518;2023-06-01T20:48:06;7.30;;;2.92;;
71116;SDS011;58775;46.992;9.518;2023-06-01T20:55:57;6.25;;;3.20;;
71116;SDS011;58775;46.992;9.518;2023-06-01T20:57:58;6.07;;;3.17;;
71116;SDS011;58775;46.992;9.518;2023-06-01T21:00:01;6.55;;;3.38;;
71116;SDS011;58775;46.992;9.518;2023-06-01T21:08:22;6.35;;;3.08;;
71116;SDS011;58775;46.992;9.518;2023-06-01T21:10:24;5.60;;;2.85;;
71116;SDS011;58775;46.992;9.518;2023-06-01T21:12:25;5.80;;;2.72;;
71116;SDS011;58775;46.992;9.518;2023-06-01T21:14:28;6.45;;;3.25;;
71116;SDS011;58775;46.992;9.518;2023-06-01T21:16:33;5.27;;;2.80;;
71116;SDS011;58775;46.992;9.518;2023-06-01T21:18:35;6.90;;;3.63;;
71116;SDS011;58775;46.992;9.518;2023-06-01T21:20:37;7.15;;;3.28;;
71116;SDS011;58775;46.992;9.518;2023-06-01T21:22:44;6.20;;;3.00;;
71116;SDS011;58775;46.992;9.518;2023-06-01T21:24:45;7.25;;;3.28;;
71116;SDS011;58775;46.992;9.518;2023-06-01T21:26:48;6.67;;;3.30;;
71116;SDS011;58775;46.992;9.518;2023-06-01T21:28:50;7.35;;;3.17;;
71116;SDS011;58775;46.992;9.518;2023-06-01T21:30:52;7.55;;;3.50;;
71116;SDS011;58775;46.992;9.518;2023-06-01T21:32:54;8.02;;;3.33;;
71116;SDS011;58775;46.992;9.518;2023-06-01T21:34:56;7.97;;;3.70;;
71116;SDS011;58775;46.992;9.518;2023-06-01T21:36:58;7.47;;;3.10;;
71116;SDS011;58775;46.992;9.518;2023-06-01T21:39:01;6.45;;;3.13;;
71116;SDS011;58775;46.992;9.518;2023-06-01T21:41:03;8.10;;;3.38;;
71116;SDS011;58775;46.992;9.518;2023-06-01T21:43:05;6.50;;;3.10;;
71116;SDS011;58775;46.992;9.518;2023-06-01T21:45:08;8.98;;;3.42;;
71116;SDS011;58775;46.992;9.518;2023-06-01T21:47:10;7.13;;;3.53;;
71116;SDS011;58775;46.992;9.518;2023-06-01T21:49:16;7.38;;;3.45;;
71116;SDS011;58775;46.992;9.518;2023-06-01T21:51:18;7.25;;;3.78;;
71116;SDS011;58775;46.992;9.518;2023-06-01T21:53:21;8.20;;;3.10;;
71116;SDS011;58775;46.992;9.518;2023-06-01T21:55:23;6.15;;;3.50;;
71116;SDS011;58775;46.992;9.518;2023-06-01T21:57:25;7.23;;;3.50;;
71116;SDS011;58775;46.992;9.518;2023-06-01T21:59:27;7.63;;;3.50;;
71116;SDS011;58775;46.992;9.518;2023-06-01T22:01:29;7.95;;;3.67;;
71116;SDS011;58775;46.992;9.518;2023-06-01T22:03:32;7.20;;;3.72;;
71116;SDS011;58775;46.992;9.518;2023-06-01T22:05:33;7.72;;;3.83;;
71116;SDS011;58775;46.992;9.518;2023-06-01T22:07:37;7.07;;;3.50;;
71116;SDS011;58775;46.992;9.518;2023-06-01T22:09:39;6.47;;;3.42;;
71116;SDS011;58775;46.992;9.518;2023-06-01T22:11:41;11.77;;;3.45;;
71116;SDS011;58775;46.992;9.518;2023-06-01T22:13:45;8.13;;;3.53;;
71116;SDS011;58775;46.992;9.518;2023-06-01T22:15:46;6.20;;;3.20;;
71116;SDS011;58775;46.992;9.518;2023-06-01T22:17:48;7.33;;;3.30;;
71116;SDS011;58775;46.992;9.518;2023-06-01T22:19:50;6.28;;;3.42;;
71116;SDS011;58775;46.992;9.518;2023-06-01T22:21:53;7.28;;;3.65;;
71116;SDS011;58775;46.992;9.518;2023-06-01T22:23:54;9.90;;;4.18;;
71116;SDS011;58775;46.992;9.518;2023-06-01T22:25:55;6.65;;;3.55;;
71116;SDS011;58775;46.992;9.518;2023-06-01T22:27:57;10.27;;;4.23;;
71116;SDS011;58775;46.992;9.518;2023-06-01T22:30:01;7.60;;;3.40;;
71116;SDS011;58775;46.992;9.518;2023-06-01T22:32:05;8.65;;;3.83;;
71116;SDS011;58775;46.992;9.518;2023-06-01T22:34:08;6.43;;;3.55;;
71116;SDS011;58775;46.992;9.518;2023-06-01T22:36:09;6.40;;;3.53;;
71116;SDS011;58775;46.992;9.518;2023-06-01T22:38:11;8.03;;;3.30;;
71116;SDS011;58775;46.992;9.518;2023-06-01T22:40:15;7.65;;;3.33;;
71116;SDS011;58775;46.992;9.518;2023-06-01T22:42:17;6.80;;;3.78;;
71116;SDS011;58775;46.992;9.518;2023-06-01T22:44:20;8.07;;;3.60;;
71116;SDS011;58775;46.992;9.518;2023-06-01T22:46:21;7.55;;;3.40;;
71116;SDS011;58775;46.992;9.518;2023-06-01T22:48:23;6.80;;;3.80;;
71116;SDS011;58775;46.992;9.518;2023-06-01T22:50:25;8.93;;;3.40;;
71116;SDS011;58775;46.992;9.518;2023-06-01T22:52:27;10.73;;;3.55;;
71116;SDS011;58775;46.992;9.518;2023-06-01T22:54:29;6.43;;;3.42;;
71116;SDS011;58775;46.992;9.518;2023-06-01T22:56:31;6.95;;;3.35;;
71116;SDS011;58775;46.992;9.518;2023-06-01T22:58:33;7.23;;;2.90;;
71116;SDS011;58775;46.992;9.518;2023-06-01T23:00:36;8.20;;;3.65;;
71116;SDS011;58775;46.992;9.518;2023-06-01T23:02:37;6.75;;;3.80;;
71116;SDS011;58775;46.992;9.518;2023-06-01T23:04:39;7.93;;;4.07;;
71116;SDS011;58775;46.992;9.518;2023-06-01T23:06:42;6.72;;;3.63;;
71116;SDS011;58775;46.992;9.518;2023-06-01T23:08:47;6.50;;;3.37;;
71116;SDS011;58775;46.992;9.518;2023-06-01T23:10:50;7.97;;;3.47;;
71116;SDS011;58775;46.992;9.518;2023-06-01T23:12:53;5.78;;;3.33;;
71116;SDS011;58775;46.992;9.518;2023-06-01T23:14:57;7.10;;;3.42;;
71116;SDS011;58775;46.992;9.518;2023-06-01T23:16:59;6.88;;;3.10;;
71116;SDS011;58775;46.992;9.518;2023-06-01T23:19:03;8.30;;;3.80;;
71116;SDS011;58775;46.992;9.518;2023-06-01T23:21:09;6.88;;;3.33;;
71116;SDS011;58775;46.992;9.518;2023-06-01T23:23:14;7.55;;;3.75;;
71116;SDS011;58775;46.992;9.518;2023-06-01T23:25:16;6.90;;;3.20;;
71116;SDS011;58775;46.992;9.518;2023-06-01T23:27:18;6.95;;;3.13;;
71116;SDS011;58775;46.992;9.518;2023-06-01T23:29:20;7.77;;;3.53;;
71116;SDS011;58775;46.992;9.518;2023-06-01T23:31:23;6.13;;;3.38;;
71116;SDS011;58775;46.992;9.518;2023-06-01T23:33:26;6.55;;;3.35;;
71116;SDS011;58775;46.992;9.518;2023-06-01T23:35:30;6.75;;;2.92;;
71116;SDS011;58775;46.992;9.518;2023-06-01T23:37:32;7.03;;;3.50;;
71116;SDS011;58775;46.992;9.518;2023-06-01T23:39:33;8.07;;;3.20;;
71116;SDS011;58775;46.992;9.518;2023-06-01T23:41:37;8.02;;;3.40;;
71116;SDS011;58775;46.992;9.518;2023-06-01T23:43:40;8.35;;;2.80;;
71116;SDS011;58775;46.992;9.518;2023-06-01T23:45:42;6.93;;;3.05;;
71116;SDS011;58775;46.992;9.518;2023-06-01T23:47:45;6.53;;;3.25;;
71116;SDS011;58775;46.992;9.518;2023-06-01T23:49:47;6.23;;;3.33;;
71116;SDS011;58775;46.992;9.518;2023-06-01T23:51:50;6.10;;;2.92;;
71116;SDS011;58775;46.992;9.518;2023-06-01T23:53:52;7.50;;;3.33;;
71116;SDS011;58775;46.992;9.518;2023-06-01T23:55:55;9.70;;;3.03;;
71116;SDS011;58775;46.992;9.518;2023-06-01T23:57:56;6.00;;;3.10;;
71116;SDS011;58775;46.992;9.518;2023-06-01T23:59:58;7.80;;;3.30;;
